Time;durP1;ratioP1;P1;durP2;ratioP2;P2;SDS_P1;SDS_P2;PMS_P1;PMS_P2;Temp;Humidity;BMP_temperature;BMP_pressure;BME280_temperature;BME280_humidity;BME280_pressure;Samples;Min_cycle;Max_cycle;Signal;HPM_P1;HPM_P2
2022/01/25 00:26:32;;;;;;;6.28;5.78;;;;;;;;;;6205011;23;20028;-39
2022/01/25 00:29:14;;;;;;;6.35;5.82;;;;;;;;;;6204403;23;20008;-39
2022/01/25 00:31:40;;;;;;;6.28;5.78;;;;;;;;;;6205141;23;20079;-39
2022/01/25 00:34:06;;;;;;;5.93;5.53;;;;;;;;;;6204825;23;20082;-39
2022/01/25 00:36:31;;;;;;;6.10;5.60;;;;;;;;;;6204867;23;20461;-40
2022/01/25 00:38:57;;;;;;;6.50;6.00;;;;;;;;;;6159090;23;20009;-39
2022/01/25 00:41:22;;;;;;;7.35;6.75;;;;;;;;;;6202939;23;20070;-39
2022/01/25 00:43:48;;;;;;;6.35;5.85;;;;;;;;;;6207322;23;20008;-39
2022/01/25 00:46:13;;;;;;;6.88;6.28;;;;;;;;;;6207667;23;20099;-39
2022/01/25 00:51:35;;;;;;;6.63;6.13;;;;;;;;;;6207180;23;20127;-40
2022/01/25 00:56:40;;;;;;;6.90;6.30;;;;;;;;;;6206075;23;20009;-39
2022/01/25 00:59:07;;;;;;;7.43;6.82;;;;;;;;;;6206818;23;20083;-39
2022/01/25 01:01:33;;;;;;;6.95;6.32;;;;;;;;;;6206698;23;20012;-39
2022/01/25 01:03:58;;;;;;;6.63;6.03;;;;;;;;;;6206387;23;20008;-39
2022/01/25 01:06:23;;;;;;;6.70;6.20;;;;;;;;;;6206477;23;20028;-39
2022/01/25 01:08:49;;;;;;;5.65;5.25;;;;;;;;;;6207444;23;20000;-39
2022/01/25 01:11:21;;;;;;;6.55;6.05;;;;;;;;;;6206375;23;20055;-40
2022/01/25 01:14:07;;;;;;;6.43;5.93;;;;;;;;;;6207169;23;20015;-39
2022/01/25 01:48:26;;;;;;;7.57;6.22;;;;;;;;;;6208769;23;20016;-39
2022/01/25 01:50:51;;;;;;;7.82;7.20;;;;;;;;;;6175783;23;20490;-39
2022/01/25 01:53:16;;;;;;;7.60;6.90;;;;;;;;;;6202088;23;20017;-39
2022/01/25 01:55:41;;;;;;;7.00;6.35;;;;;;;;;;6206370;23;20021;-39
2022/01/25 01:58:07;;;;;;;7.35;6.75;;;;;;;;;;6206832;23;20012;-39
2022/01/25 02:00:42;;;;;;;8.02;7.32;;;;;;;;;;6205809;23;20023;-39
2022/01/25 02:03:07;;;;;;;7.90;7.28;;;;;;;;;;6207235;23;20004;-39
2022/01/25 02:05:33;;;;;;;7.97;7.35;;;;;;;;;;6205552;23;21329;-40
2022/01/25 02:08:00;;;;;;;7.32;6.72;;;;;;;;;;6206919;23;20024;-39
2022/01/25 02:10:25;;;;;;;6.80;6.28;;;;;;;;;;6205905;23;20036;-39
2022/01/25 02:12:52;;;;;;;8.15;7.45;;;;;;;;;;6207633;23;20013;-39
2022/01/25 02:15:17;;;;;;;7.30;6.70;;;;;;;;;;6205686;23;20005;-39
2022/01/25 02:23:12;;;;;;;7.72;7.13;;;;;;;;;;6206354;23;20016;-40
2022/01/25 02:25:37;;;;;;;7.22;6.63;;;;;;;;;;6205818;23;20020;-39
2022/01/25 02:28:03;;;;;;;7.15;6.55;;;;;;;;;;6208621;23;20009;-40
2022/01/25 02:30:28;;;;;;;7.93;7.28;;;;;;;;;;6207546;23;20083;-39
2022/01/25 02:32:53;;;;;;;6.35;5.82;;;;;;;;;;6208611;23;20115;-39
2022/01/25 02:35:18;;;;;;;7.00;6.40;;;;;;;;;;6208192;23;20013;-39
2022/01/25 02:37:44;;;;;;;6.80;6.28;;;;;;;;;;6208691;23;20016;-40
2022/01/25 02:40:09;;;;;;;7.60;6.95;;;;;;;;;;6208084;23;20017;-43
2022/01/25 02:42:34;;;;;;;7.07;6.38;;;;;;;;;;6207589;23;20079;-39
2022/01/25 02:45:00;;;;;;;6.90;6.30;;;;;;;;;;6208332;23;20491;-39
2022/01/25 02:50:09;;;;;;;7.28;6.68;;;;;;;;;;6207296;23;20028;-40
2022/01/25 02:52:34;;;;;;;7.40;6.80;;;;;;;;;;6206792;23;20024;-39
2022/01/25 02:55:00;;;;;;;7.00;6.40;;;;;;;;;;6203687;23;20067;-39
2022/01/25 02:57:25;;;;;;;7.97;7.28;;;;;;;;;;6207661;23;20020;-40
2022/01/25 02:59:50;;;;;;;6.55;5.97;;;;;;;;;;6207929;23;20012;-41
2022/01/25 03:02:16;;;;;;;7.03;6.50;;;;;;;;;;6208050;23;20016;-40
2022/01/25 03:04:41;;;;;;;7.53;6.90;;;;;;;;;;6208617;23;20001;-40
2022/01/25 03:07:08;;;;;;;7.03;6.43;;;;;;;;;;6206153;23;20087;-40
2022/01/25 03:09:33;;;;;;;7.05;6.45;;;;;;;;;;6207946;23;22537;-41
2022/01/25 03:12:00;;;;;;;7.50;6.90;;;;;;;;;;6208177;23;20013;-40
2022/01/25 03:14:30;;;;;;;6.75;6.25;;;;;;;;;;6206948;23;20027;-39
2022/01/25 03:22:00;;;;;;;7.60;7.00;;;;;;;;;;6210875;23;20084;-39
2022/01/25 03:24:26;;;;;;;7.85;7.15;;;;;;;;;;6207301;23;20008;-40
2022/01/25 03:26:51;;;;;;;7.50;6.90;;;;;;;;;;6206750;23;21008;-40
2022/01/25 03:29:17;;;;;;;6.63;6.13;;;;;;;;;;6208038;23;20012;-40
2022/01/25 03:31:42;;;;;;;8.70;7.95;;;;;;;;;;6207549;23;20134;-39
2022/01/25 03:34:07;;;;;;;7.45;6.75;;;;;;;;;;6207960;23;20055;-40
2022/01/25 03:36:33;;;;;;;7.60;6.90;;;;;;;;;;6207861;23;20019;-39
2022/01/25 03:38:58;;;;;;;7.15;6.55;;;;;;;;;;6207717;23;20331;-40
2022/01/25 03:41:24;;;;;;;6.85;6.25;;;;;;;;;;6207641;23;20004;-40
2022/01/25 03:43:56;;;;;;;7.20;6.60;;;;;;;;;;6207955;23;20075;-41
2022/01/25 03:46:35;;;;;;;7.70;7.00;;;;;;;;;;6207366;23;20072;-42
2022/01/25 03:51:45;;;;;;;7.00;6.40;;;;;;;;;;6183521;23;20088;-39
2022/01/25 03:54:10;;;;;;;6.25;5.75;;;;;;;;;;6208051;23;20032;-40
2022/01/25 03:56:36;;;;;;;5.97;5.47;;;;;;;;;;6207126;23;20044;-39
2022/01/25 03:59:01;;;;;;;7.22;6.63;;;;;;;;;;6207965;23;20020;-39
2022/01/25 04:01:27;;;;;;;6.70;6.20;;;;;;;;;;6206971;23;20350;-39
2022/01/25 04:04:26;;;;;;;6.88;6.32;;;;;;;;;;6208025;23;20023;-40
2022/01/25 04:06:48;;;;;;;6.43;5.82;;;;;;;;;;6158643;23;20020;-39
2022/01/25 04:09:13;;;;;;;6.78;6.18;;;;;;;;;;6206730;23;20024;-39
2022/01/25 04:11:38;;;;;;;6.50;5.85;;;;;;;;;;6207724;23;20001;-39
2022/01/25 04:14:04;;;;;;;7.28;6.68;;;;;;;;;;6207617;23;20512;-39
2022/01/25 04:16:35;;;;;;;6.72;6.13;;;;;;;;;;6206944;23;20009;-39
2022/01/25 04:19:14;;;;;;;6.20;5.70;;;;;;;;;;6207267;23;20012;-39
2022/01/25 04:21:44;;;;;;;6.13;5.63;;;;;;;;;;6205446;23;20403;-39
2022/01/25 04:26:54;;;;;;;5.90;5.40;;;;;;;;;;6206933;23;20817;-39
2022/01/25 04:29:19;;;;;;;6.15;5.65;;;;;;;;;;6206446;23;20009;-40
2022/01/25 04:31:45;;;;;;;5.57;5.18;;;;;;;;;;6206283;23;20013;-39
2022/01/25 04:48:50;;;;;;;7.15;6.32;;;;;;;;;;6206783;23;20008;-40
2022/01/25 04:50:50;;;;;;;6.47;5.88;;;;;;;;;;6206415;23;20087;-40
2022/01/25 04:53:29;;;;;;;6.47;5.97;;;;;;;;;;6206401;23;20358;-39
2022/01/25 04:56:46;;;;;;;6.43;5.93;;;;;;;;;;6185211;23;20368;-40
2022/01/25 04:58:49;;;;;;;6.32;5.82;;;;;;;;;;6190147;23;20005;-40
2022/01/25 05:01:14;;;;;;;6.80;6.22;;;;;;;;;;6206605;23;20012;-40
2022/01/25 05:04:05;;;;;;;6.47;5.90;;;;;;;;;;6206427;23;20111;-39
2022/01/25 05:06:26;;;;;;;7.07;6.47;;;;;;;;;;6206131;23;20020;-39
2022/01/25 05:08:55;;;;;;;6.55;6.05;;;;;;;;;;6206764;23;20451;-39
2022/01/25 05:11:31;;;;;;;6.93;6.33;;;;;;;;;;6206508;23;20354;-39
2022/01/25 05:16:37;;;;;;;6.68;6.07;;;;;;;;;;6206461;23;20024;-39
2022/01/25 05:19:22;;;;;;;7.40;6.70;;;;;;;;;;6207529;23;20005;-39
2022/01/25 05:22:07;;;;;;;7.00;6.43;;;;;;;;;;6204279;23;20099;-40
2022/01/25 05:24:34;;;;;;;6.22;5.72;;;;;;;;;;6205693;23;20066;-40
2022/01/25 05:26:59;;;;;;;5.70;5.20;;;;;;;;;;6206946;23;20021;-39
2022/01/25 05:29:25;;;;;;;6.65;6.05;;;;;;;;;;6206252;23;20035;-39
2022/01/25 05:31:50;;;;;;;6.43;5.93;;;;;;;;;;6206385;23;20047;-39
2022/01/25 05:34:16;;;;;;;6.63;6.03;;;;;;;;;;6206569;23;20013;-39
2022/01/25 05:36:43;;;;;;;6.60;6.00;;;;;;;;;;6207240;23;20008;-40
2022/01/25 05:39:16;;;;;;;5.93;5.43;;;;;;;;;;6206858;23;20443;-39
2022/01/25 05:41:42;;;;;;;7.07;6.47;;;;;;;;;;6206773;23;20013;-40
2022/01/25 05:46:52;;;;;;;6.82;6.22;;;;;;;;;;6205956;23;20761;-39
2022/01/25 05:49:17;;;;;;;6.00;5.50;;;;;;;;;;6205574;23;20684;-39
2022/01/25 05:51:43;;;;;;;6.90;6.30;;;;;;;;;;6205914;23;20028;-39
2022/01/25 05:54:08;;;;;;;6.43;5.90;;;;;;;;;;6206383;23;20106;-39
2022/01/25 05:56:33;;;;;;;7.03;6.43;;;;;;;;;;6206424;23;20016;-39
2022/01/25 05:58:59;;;;;;;6.45;5.85;;;;;;;;;;6206947;23;20011;-40
2022/01/25 06:01:24;;;;;;;6.85;6.25;;;;;;;;;;6207797;23;20393;-39
2022/01/25 06:03:49;;;;;;;6.95;6.35;;;;;;;;;;6208507;23;20008;-40
2022/01/25 06:06:14;;;;;;;6.07;5.57;;;;;;;;;;6208506;23;20474;-39
2022/01/25 06:08:40;;;;;;;7.00;6.40;;;;;;;;;;6208772;23;20561;-39
2022/01/25 06:11:06;;;;;;;7.10;6.50;;;;;;;;;;6209073;23;20076;-39
2022/01/25 06:13:32;;;;;;;6.47;5.88;;;;;;;;;;6207902;23;20024;-39
2022/01/25 06:15:57;;;;;;;6.63;6.03;;;;;;;;;;6208657;23;20386;-39
2022/01/25 06:18:22;;;;;;;6.50;5.90;;;;;;;;;;6207459;23;20009;-39
2022/01/25 06:20:48;;;;;;;6.47;5.97;;;;;;;;;;6208621;23;20005;-39
2022/01/25 06:23:13;;;;;;;7.07;6.47;;;;;;;;;;6205699;23;20032;-39
2022/01/25 06:25:38;;;;;;;6.85;6.25;;;;;;;;;;6209127;23;20079;-39
2022/01/25 06:28:04;;;;;;;7.22;6.63;;;;;;;;;;6208037;23;20024;-39
2022/01/25 06:30:29;;;;;;;7.45;6.75;;;;;;;;;;6208036;23;20027;-39
2022/01/25 06:32:55;;;;;;;7.80;7.13;;;;;;;;;;6206393;23;20879;-39
2022/01/25 06:35:20;;;;;;;6.93;6.38;;;;;;;;;;6208092;23;20017;-39
2022/01/25 06:37:46;;;;;;;7.10;6.50;;;;;;;;;;6208086;23;20005;-39
2022/01/25 06:40:12;;;;;;;7.40;6.70;;;;;;;;;;6208948;23;20647;-41
2022/01/25 06:42:37;;;;;;;7.80;7.10;;;;;;;;;;6207749;23;20355;-39
2022/01/25 06:45:12;;;;;;;6.57;6.00;;;;;;;;;;6208470;23;20012;-39
2022/01/25 06:47:37;;;;;;;7.40;6.75;;;;;;;;;;6207155;23;20091;-40
2022/01/25 06:50:03;;;;;;;7.45;6.75;;;;;;;;;;6208109;23;20039;-41
2022/01/25 06:52:28;;;;;;;7.20;6.60;;;;;;;;;;6207647;23;20043;-39
2022/01/25 06:54:53;;;;;;;6.85;6.25;;;;;;;;;;6208465;23;20039;-39
2022/01/25 06:57:19;;;;;;;6.57;5.97;;;;;;;;;;6205530;23;20017;-39
2022/01/25 06:59:44;;;;;;;6.78;6.22;;;;;;;;;;6208131;23;20020;-39
2022/01/25 07:02:10;;;;;;;6.88;6.28;;;;;;;;;;6207587;23;20029;-40
2022/01/25 07:04:35;;;;;;;6.35;5.80;;;;;;;;;;6208352;23;20009;-40
2022/01/25 07:07:00;;;;;;;6.70;6.10;;;;;;;;;;6208069;23;20027;-40
2022/01/25 07:09:28;;;;;;;6.85;6.25;;;;;;;;;;6208117;23;20058;-39
2022/01/25 07:11:53;;;;;;;6.40;5.80;;;;;;;;;;6207245;23;20427;-40
2022/01/25 07:14:18;;;;;;;6.68;6.07;;;;;;;;;;6208267;23;20036;-40
2022/01/25 07:16:46;;;;;;;6.75;6.15;;;;;;;;;;6207528;23;20018;-40
2022/01/25 07:19:11;;;;;;;6.22;5.72;;;;;;;;;;6208620;23;20070;-40
2022/01/25 07:21:36;;;;;;;7.35;6.63;;;;;;;;;;6207225;23;20005;-39
2022/01/25 07:24:02;;;;;;;8.02;7.32;;;;;;;;;;6208095;23;20012;-39
2022/01/25 07:26:27;;;;;;;7.13;6.53;;;;;;;;;;6206841;23;20493;-40
2022/01/25 07:28:52;;;;;;;7.40;6.80;;;;;;;;;;6208096;23;20008;-40
2022/01/25 07:31:18;;;;;;;6.93;6.32;;;;;;;;;;6207509;23;20092;-39
2022/01/25 07:33:43;;;;;;;5.70;5.20;;;;;;;;;;6205867;23;20084;-39
2022/01/25 07:36:08;;;;;;;7.40;6.72;;;;;;;;;;6206904;23;20008;-40
2022/01/25 07:38:34;;;;;;;7.18;6.47;;;;;;;;;;6204800;23;20063;-40
2022/01/25 07:41:00;;;;;;;7.60;6.90;;;;;;;;;;6207802;23;20359;-39
2022/01/25 07:43:25;;;;;;;6.53;5.95;;;;;;;;;;6206610;23;20015;-39
2022/01/25 07:45:53;;;;;;;6.30;5.80;;;;;;;;;;6208199;23;20091;-39
2022/01/25 07:48:19;;;;;;;7.15;6.55;;;;;;;;;;6206851;23;20012;-40
2022/01/25 07:50:44;;;;;;;6.40;5.82;;;;;;;;;;6208022;23;20058;-40
2022/01/25 07:53:09;;;;;;;7.80;7.10;;;;;;;;;;6206477;23;20119;-40
2022/01/25 07:55:35;;;;;;;7.72;7.03;;;;;;;;;;6207605;23;20096;-39
2022/01/25 07:58:00;;;;;;;7.90;7.20;;;;;;;;;;6207135;23;20752;-39
2022/01/25 08:00:25;;;;;;;7.10;6.50;;;;;;;;;;6206973;23;20043;-39
2022/01/25 08:02:51;;;;;;;6.97;6.28;;;;;;;;;;6207497;23;20008;-40
2022/01/25 08:05:17;;;;;;;7.45;6.75;;;;;;;;;;6206073;23;20350;-39
2022/01/25 08:07:43;;;;;;;7.50;6.80;;;;;;;;;;6206879;23;20009;-40
2022/01/25 08:10:08;;;;;;;7.28;6.68;;;;;;;;;;6207604;23;20091;-39
2022/01/25 08:12:33;;;;;;;7.35;6.75;;;;;;;;;;6207261;23;20043;-39
2022/01/25 08:15:00;;;;;;;7.22;6.63;;;;;;;;;;6207944;23;20013;-39
2022/01/25 08:17:25;;;;;;;7.88;6.72;;;;;;;;;;6179972;23;20008;-39
2022/01/25 08:19:50;;;;;;;7.93;7.22;;;;;;;;;;6206642;23;20008;-39
2022/01/25 08:22:18;;;;;;;7.82;7.20;;;;;;;;;;6206801;23;20039;-39
2022/01/25 08:24:44;;;;;;;7.90;7.20;;;;;;;;;;6206767;23;20028;-39
2022/01/25 08:27:09;;;;;;;7.63;6.93;;;;;;;;;;6207550;23;20024;-39
2022/01/25 08:29:34;;;;;;;7.75;7.07;;;;;;;;;;6206501;23;20048;-40
2022/01/25 08:32:00;;;;;;;7.50;6.82;;;;;;;;;;6207349;23;20009;-40
2022/01/25 08:34:25;;;;;;;7.85;7.05;;;;;;;;;;6206459;23;20377;-39
2022/01/25 08:36:50;;;;;;;7.47;6.78;;;;;;;;;;6207358;23;20016;-39
2022/01/25 08:39:16;;;;;;;7.80;7.05;;;;;;;;;;6206184;23;20036;-39
2022/01/25 08:41:41;;;;;;;7.22;6.53;;;;;;;;;;6207269;23;20087;-39
2022/01/25 08:44:06;;;;;;;7.55;6.85;;;;;;;;;;6206429;23;20111;-39
2022/01/25 08:46:32;;;;;;;7.20;6.60;;;;;;;;;;6207145;23;20048;-40
2022/01/25 08:48:57;;;;;;;7.18;6.55;;;;;;;;;;6205133;23;20013;-39
2022/01/25 08:51:23;;;;;;;7.15;6.55;;;;;;;;;;6206376;23;20131;-39
2022/01/25 08:53:48;;;;;;;7.60;6.97;;;;;;;;;;6206692;23;20277;-39
2022/01/25 08:56:13;;;;;;;6.97;6.35;;;;;;;;;;6206351;23;20088;-39
2022/01/25 08:58:40;;;;;;;6.88;6.28;;;;;;;;;;6162122;23;20013;-40
2022/01/25 09:01:06;;;;;;;7.55;6.95;;;;;;;;;;6200328;23;20111;-39
2022/01/25 09:03:31;;;;;;;7.75;7.05;;;;;;;;;;6206296;23;20267;-39
2022/01/25 09:05:57;;;;;;;7.32;6.63;;;;;;;;;;6206046;23;20476;-39
2022/01/25 09:08:23;;;;;;;7.10;6.50;;;;;;;;;;6155656;23;20041;-40
2022/01/25 09:10:51;;;;;;;7.28;6.68;;;;;;;;;;6198926;23;20435;-39
2022/01/25 09:13:17;;;;;;;8.43;7.05;;;;;;;;;;6201027;23;20023;-40
2022/01/25 09:15:43;;;;;;;8.02;7.32;;;;;;;;;;6199529;23;20017;-40
2022/01/25 09:18:08;;;;;;;7.30;6.70;;;;;;;;;;6199916;23;20330;-40
2022/01/25 09:20:33;;;;;;;6.85;6.25;;;;;;;;;;6200282;23;20012;-40
2022/01/25 09:22:59;;;;;;;7.50;6.90;;;;;;;;;;6199926;23;20004;-39
2022/01/25 09:25:24;;;;;;;7.28;6.68;;;;;;;;;;6200720;23;20017;-39
2022/01/25 09:27:49;;;;;;;7.25;6.65;;;;;;;;;;6199049;23;20016;-40
2022/01/25 09:30:14;;;;;;;7.00;6.40;;;;;;;;;;6199192;23;20070;-39
2022/01/25 09:32:40;;;;;;;7.80;7.03;;;;;;;;;;6201398;23;20662;-40
2022/01/25 09:35:06;;;;;;;8.85;8.02;;;;;;;;;;6203080;23;20319;-40
2022/01/25 09:37:31;;;;;;;7.45;6.75;;;;;;;;;;6204075;23;20590;-39
2022/01/25 09:39:56;;;;;;;7.82;7.13;;;;;;;;;;6203872;23;20012;-39
2022/01/25 09:42:22;;;;;;;7.15;6.53;;;;;;;;;;6205246;23;20017;-39
2022/01/25 09:44:48;;;;;;;8.07;7.30;;;;;;;;;;6205464;23;20039;-39
2022/01/25 09:47:14;;;;;;;8.02;7.32;;;;;;;;;;6205168;23;20016;-39
2022/01/25 09:49:39;;;;;;;7.93;7.22;;;;;;;;;;6205227;23;20013;-39
2022/01/25 09:52:05;;;;;;;8.18;7.47;;;;;;;;;;6206717;23;20055;-39
2022/01/25 09:54:32;;;;;;;8.35;7.47;;;;;;;;;;6204839;23;20021;-39
2022/01/25 09:56:57;;;;;;;8.25;7.55;;;;;;;;;;6205723;23;20343;-39
2022/01/25 09:59:23;;;;;;;8.88;8.07;;;;;;;;;;6204913;23;20012;-41
2022/01/25 10:01:48;;;;;;;7.90;7.20;;;;;;;;;;6203476;23;20008;-39
2022/01/25 10:04:28;;;;;;;8.70;7.80;;;;;;;;;;6205767;23;20029;-39
2022/01/25 10:06:54;;;;;;;6.80;6.20;;;;;;;;;;6205816;23;20462;-39
2022/01/25 10:09:20;;;;;;;7.90;7.10;;;;;;;;;;6204580;23;20071;-39
2022/01/25 10:11:45;;;;;;;7.38;6.68;;;;;;;;;;6206326;23;20327;-39
2022/01/25 10:14:11;;;;;;;8.15;7.35;;;;;;;;;;6205395;23;20020;-40
2022/01/25 10:16:38;;;;;;;9.10;8.30;;;;;;;;;;6204603;23;20032;-39
2022/01/25 10:19:05;;;;;;;8.75;7.97;;;;;;;;;;6206617;23;20016;-40
2022/01/25 10:21:34;;;;;;;7.78;7.07;;;;;;;;;;6204742;23;20647;-39
2022/01/25 10:23:59;;;;;;;8.25;7.53;;;;;;;;;;6206097;23;20012;-39
2022/01/25 10:26:25;;;;;;;7.15;6.50;;;;;;;;;;6204602;23;20059;-39
2022/01/25 10:28:50;;;;;;;7.72;6.55;;;;;;;;;;6205313;23;20009;-39
2022/01/25 10:31:15;;;;;;;7.70;6.90;;;;;;;;;;6204804;23;20450;-39
2022/01/25 10:33:50;;;;;;;7.32;6.63;;;;;;;;;;6205674;23;20013;-40
2022/01/25 10:36:22;;;;;;;7.32;6.60;;;;;;;;;;6204754;23;20020;-39
2022/01/25 10:38:49;;;;;;;7.05;6.45;;;;;;;;;;6205828;23;20039;-39
2022/01/25 10:41:16;;;;;;;8.02;6.82;;;;;;;;;;6204252;23;20012;-39
2022/01/25 10:43:43;;;;;;;8.20;7.00;;;;;;;;;;6206502;23;20370;-39
2022/01/25 10:46:08;;;;;;;7.43;6.72;;;;;;;;;;6205010;23;20048;-39
2022/01/25 10:48:33;;;;;;;7.40;6.70;;;;;;;;;;6203649;23;20012;-40
2022/01/25 10:51:04;;;;;;;7.35;6.75;;;;;;;;;;6171792;23;20017;-40
2022/01/25 10:53:29;;;;;;;7.65;6.95;;;;;;;;;;6174501;23;20009;-39
2022/01/25 10:55:57;;;;;;;7.53;6.78;;;;;;;;;;6174055;23;20020;-39
2022/01/25 10:58:23;;;;;;;7.13;6.45;;;;;;;;;;6174720;23;20021;-39
2022/01/25 11:00:51;;;;;;;11.88;7.75;;;;;;;;;;6172681;23;20012;-39
2022/01/25 11:03:27;;;;;;;6.82;6.22;;;;;;;;;;6175023;23;20016;-39
2022/01/25 11:05:52;;;;;;;7.47;6.80;;;;;;;;;;6173201;23;20020;-39
2022/01/25 11:08:19;;;;;;;7.20;6.50;;;;;;;;;;6174778;23;20017;-39
2022/01/25 11:10:53;;;;;;;7.70;7.00;;;;;;;;;;6172734;23;20020;-39
2022/01/25 11:13:38;;;;;;;6.70;6.10;;;;;;;;;;6172699;23;20020;-40
2022/01/25 11:16:11;;;;;;;7.35;6.53;;;;;;;;;;6172453;23;20009;-39
2022/01/25 11:18:37;;;;;;;7.47;6.78;;;;;;;;;;6172345;23;20001;-39
2022/01/25 11:21:05;;;;;;;6.85;6.25;;;;;;;;;;6173669;23;20012;-39
2022/01/25 11:23:34;;;;;;;6.43;5.82;;;;;;;;;;6174069;23;20013;-39
2022/01/25 11:26:02;;;;;;;5.40;4.90;;;;;;;;;;6173801;23;20027;-39
2022/01/25 11:28:27;;;;;;;6.00;5.38;;;;;;;;;;6176027;23;20013;-39
2022/01/25 11:30:53;;;;;;;5.30;4.80;;;;;;;;;;6174665;23;20580;-41
2022/01/25 11:33:19;;;;;;;6.22;5.63;;;;;;;;;;6168786;23;20024;-39
2022/01/25 11:35:45;;;;;;;6.63;6.03;;;;;;;;;;6172956;23;20470;-40
2022/01/25 11:38:10;;;;;;;6.28;5.68;;;;;;;;;;6173515;23;20017;-40
2022/01/25 11:40:40;;;;;;;5.15;4.65;;;;;;;;;;6173712;23;20435;-40
2022/01/25 11:43:09;;;;;;;6.07;5.55;;;;;;;;;;6173522;23;20067;-39
2022/01/25 11:45:45;;;;;;;5.47;4.97;;;;;;;;;;6173335;23;20087;-40
2022/01/25 11:48:10;;;;;;;6.63;6.03;;;;;;;;;;6173755;23;20092;-39
2022/01/25 11:50:37;;;;;;;6.72;6.13;;;;;;;;;;6180829;23;20032;-39
2022/01/25 11:53:07;;;;;;;6.22;5.63;;;;;;;;;;6203142;23;20017;-39
2022/01/25 11:55:47;;;;;;;6.00;5.45;;;;;;;;;;6202833;23;20023;-39
2022/01/25 11:58:25;;;;;;;6.82;6.18;;;;;;;;;;6202855;23;20382;-39
2022/01/25 12:01:00;;;;;;;6.63;5.93;;;;;;;;;;6203073;23;20009;-39
2022/01/25 12:03:25;;;;;;;7.07;6.30;;;;;;;;;;6201957;23;20458;-39
2022/01/25 12:06:09;;;;;;;6.90;6.05;;;;;;;;;;6203343;23;20066;-39
2022/01/25 12:12:18;;;;;;;6.13;5.53;;;;;;;;;;6202838;23;20020;-40
2022/01/25 12:14:24;;;;;;;5.80;5.28;;;;;;;;;;6179407;23;20016;-40
2022/01/25 12:16:53;;;;;;;6.68;6.07;;;;;;;;;;6202501;23;20019;-39
2022/01/25 12:19:19;;;;;;;7.22;6.53;;;;;;;;;;6203507;23;20013;-39
2022/01/25 12:21:45;;;;;;;6.07;5.38;;;;;;;;;;6202783;23;20596;-40
2022/01/25 12:24:29;;;;;;;6.97;6.28;;;;;;;;;;6203205;23;20017;-39
2022/01/25 12:27:10;;;;;;;6.70;6.00;;;;;;;;;;6202537;23;20035;-40
2022/01/25 12:29:40;;;;;;;6.72;6.13;;;;;;;;;;6201895;23;20063;-42
2022/01/25 12:32:36;;;;;;;6.55;5.95;;;;;;;;;;6202288;23;20497;-41
2022/01/25 12:35:11;;;;;;;6.30;5.65;;;;;;;;;;6177395;23;20040;-39
2022/01/25 12:37:43;;;;;;;6.45;5.85;;;;;;;;;;6202744;23;20011;-40
2022/01/25 12:40:28;;;;;;;6.18;5.57;;;;;;;;;;6203918;23;20024;-39
2022/01/25 12:42:54;;;;;;;6.07;5.45;;;;;;;;;;6200549;23;20023;-40
2022/01/25 12:45:20;;;;;;;5.97;5.38;;;;;;;;;;6203250;23;20013;-39
2022/01/25 12:47:56;;;;;;;5.40;4.90;;;;;;;;;;6203025;23;20389;-40
2022/01/25 12:50:21;;;;;;;5.38;4.88;;;;;;;;;;6203065;23;20843;-40
2022/01/25 12:52:47;;;;;;;4.68;4.28;;;;;;;;;;6203742;23;20035;-42
2022/01/25 12:55:13;;;;;;;5.70;5.07;;;;;;;;;;6204558;23;20016;-40
2022/01/25 12:57:44;;;;;;;5.45;4.95;;;;;;;;;;6203108;23;20016;-40
2022/01/25 13:00:10;;;;;;;5.82;5.32;;;;;;;;;;6203991;23;20007;-40
2022/01/25 13:02:35;;;;;;;6.03;5.43;;;;;;;;;;6201491;23;20005;-40
2022/01/25 13:05:00;;;;;;;6.13;5.57;;;;;;;;;;6202909;23;20014;-41
2022/01/25 13:07:26;;;;;;;5.47;4.95;;;;;;;;;;6201709;23;20029;-40
2022/01/25 13:09:54;;;;;;;5.53;5.03;;;;;;;;;;6203432;23;20059;-40
2022/01/25 13:12:28;;;;;;;5.68;5.07;;;;;;;;;;6201858;23;20020;-39
2022/01/25 13:15:27;;;;;;;5.90;4.82;;;;;;;;;;6202278;23;20071;-40
2022/01/25 13:17:48;;;;;;;5.32;4.82;;;;;;;;;;6202631;23;20455;-39
2022/01/25 13:20:14;;;;;;;6.35;5.63;;;;;;;;;;6201695;23;20078;-40
2022/01/25 13:22:42;;;;;;;5.78;5.15;;;;;;;;;;6202067;23;20686;-40
2022/01/25 13:27:35;;;;;;;4.80;4.40;;;;;;;;;;6196217;23;20087;-40
2022/01/25 13:32:52;;;;;;;4.90;4.35;;;;;;;;;;6165964;23;20005;-41
2022/01/25 13:35:33;;;;;;;4.68;4.28;;;;;;;;;;6171158;23;20382;-40
2022/01/25 13:38:04;;;;;;;4.95;4.13;;;;;;;;;;6199407;23;20413;-40
2022/01/25 13:40:37;;;;;;;5.43;4.93;;;;;;;;;;6200211;23;20040;-39
2022/01/25 13:45:58;;;;;;;8.13;4.90;;;;;;;;;;6176270;23;20513;-39
2022/01/25 13:48:25;;;;;;;5.53;5.03;;;;;;;;;;6199976;23;20086;-40
2022/01/25 13:50:54;;;;;;;5.30;4.80;;;;;;;;;;6198310;23;20020;-40
2022/01/25 13:53:19;;;;;;;4.32;3.92;;;;;;;;;;6199454;23;20021;-39
2022/01/25 13:55:48;;;;;;;5.65;5.05;;;;;;;;;;6199812;23;20036;-40
2022/01/25 13:58:28;;;;;;;5.28;4.47;;;;;;;;;;6198705;23;20550;-41
2022/01/25 14:00:55;;;;;;;5.13;4.63;;;;;;;;;;6198559;23;20027;-39
2022/01/25 14:03:25;;;;;;;5.03;4.53;;;;;;;;;;6199584;23;20009;-40
2022/01/25 14:05:50;;;;;;;4.65;4.25;;;;;;;;;;6201693;23;20012;-40
2022/01/25 14:08:15;;;;;;;4.93;4.53;;;;;;;;;;6200457;23;20035;-39
2022/01/25 14:10:45;;;;;;;4.20;3.80;;;;;;;;;;6202696;23;20028;-39
2022/01/25 14:24:18;;;;;;;5.38;4.88;;;;;;;;;;6168959;23;20012;-40
2022/01/25 14:26:44;;;;;;;5.72;4.90;;;;;;;;;;6202388;23;20139;-40
2022/01/25 14:29:17;;;;;;;6.07;5.03;;;;;;;;;;6204342;23;20011;-40
2022/01/25 14:31:43;;;;;;;4.68;4.28;;;;;;;;;;6202438;23;20004;-40
2022/01/25 14:34:12;;;;;;;5.10;4.65;;;;;;;;;;6203959;23;20540;-41
2022/01/25 14:36:39;;;;;;;4.45;4.07;;;;;;;;;;6202980;23;20111;-40
2022/01/25 14:39:05;;;;;;;5.20;4.70;;;;;;;;;;6204873;23;20076;-40
2022/01/25 14:41:32;;;;;;;5.97;5.40;;;;;;;;;;6202749;23;20780;-40
2022/01/25 14:44:04;;;;;;;4.43;4.03;;;;;;;;;;6204852;23;20013;-40
2022/01/25 14:46:35;;;;;;;5.43;4.90;;;;;;;;;;6202026;23;20500;-39
2022/01/25 14:49:08;;;;;;;5.15;4.65;;;;;;;;;;6202575;23;20008;-40
2022/01/25 14:51:37;;;;;;;4.50;4.05;;;;;;;;;;6200619;23;20032;-40
2022/01/25 14:54:04;;;;;;;5.47;4.78;;;;;;;;;;6204871;23;20009;-40
2022/01/25 14:56:30;;;;;;;4.75;4.35;;;;;;;;;;6203554;23;20100;-39
2022/01/25 15:01:21;;;;;;;4.78;4.38;;;;;;;;;;6203475;23;20040;-39
2022/01/25 15:03:49;;;;;;;5.82;4.90;;;;;;;;;;6204531;23;20019;-40
2022/01/25 15:06:15;;;;;;;5.15;4.57;;;;;;;;;;6203390;23;20029;-40
2022/01/25 15:08:47;;;;;;;4.68;4.28;;;;;;;;;;6203667;23;20088;-39
2022/01/25 15:11:13;;;;;;;5.35;4.53;;;;;;;;;;6203127;23;20040;-40
2022/01/25 15:13:39;;;;;;;5.82;4.30;;;;;;;;;;6204363;23;20016;-42
2022/01/25 15:16:05;;;;;;;4.30;3.90;;;;;;;;;;6203276;23;20104;-40
2022/01/25 15:18:31;;;;;;;4.45;4.05;;;;;;;;;;6202836;23;20521;-40
2022/01/25 15:20:58;;;;;;;4.10;3.70;;;;;;;;;;6204253;23;20012;-39
2022/01/25 15:23:24;;;;;;;5.75;4.60;;;;;;;;;;6202669;23;20024;-40
2022/01/25 15:25:54;;;;;;;4.88;4.38;;;;;;;;;;6203054;23;20094;-40
2022/01/25 15:28:20;;;;;;;4.00;3.65;;;;;;;;;;6202354;23;20024;-40
2022/01/25 15:30:45;;;;;;;4.97;4.57;;;;;;;;;;6204452;23;20414;-40
2022/01/25 15:33:11;;;;;;;5.50;4.63;;;;;;;;;;6203200;23;20009;-40
2022/01/25 15:35:37;;;;;;;4.57;4.18;;;;;;;;;;6202493;23;20009;-40
2022/01/25 15:38:02;;;;;;;4.95;4.28;;;;;;;;;;6203978;23;20419;-40
2022/01/25 15:40:28;;;;;;;4.65;4.15;;;;;;;;;;6202538;23;20016;-39
2022/01/25 15:42:53;;;;;;;5.53;4.90;;;;;;;;;;6204027;23;20067;-42
2022/01/25 15:45:30;;;;;;;5.22;4.72;;;;;;;;;;6203121;23;20015;-41
2022/01/25 15:47:56;;;;;;;5.07;4.55;;;;;;;;;;6201989;23;20016;-40
2022/01/25 15:50:23;;;;;;;4.72;4.32;;;;;;;;;;6202085;23;20013;-40
2022/01/25 15:52:49;;;;;;;5.00;4.50;;;;;;;;;;6203140;23;20707;-40
2022/01/25 15:55:14;;;;;;;4.53;4.13;;;;;;;;;;6202693;23;20036;-40
2022/01/25 15:57:39;;;;;;;4.97;4.47;;;;;;;;;;6203444;23;20009;-39
2022/01/25 16:00:05;;;;;;;4.70;4.10;;;;;;;;;;6202983;23;20079;-40
2022/01/25 16:02:31;;;;;;;4.30;3.90;;;;;;;;;;6199300;23;20015;-40
2022/01/25 16:04:56;;;;;;;4.40;4.00;;;;;;;;;;6203010;23;20020;-39
2022/01/25 16:07:21;;;;;;;5.28;4.78;;;;;;;;;;6202187;23;20493;-40
2022/01/25 16:09:53;;;;;;;4.10;3.70;;;;;;;;;;6203637;23;20684;-40
2022/01/25 16:12:18;;;;;;;4.28;3.88;;;;;;;;;;6202481;23;20059;-39
2022/01/25 16:14:43;;;;;;;4.47;4.00;;;;;;;;;;6204105;23;20004;-39
2022/01/25 16:17:09;;;;;;;4.03;3.58;;;;;;;;;;6203127;23;20020;-40
2022/01/25 16:19:34;;;;;;;4.45;4.05;;;;;;;;;;6202178;23;20150;-40
2022/01/25 16:21:59;;;;;;;5.43;4.18;;;;;;;;;;6203397;23;20005;-40
2022/01/25 16:24:24;;;;;;;4.55;4.15;;;;;;;;;;6202489;23;20047;-40
2022/01/25 16:26:50;;;;;;;4.35;3.95;;;;;;;;;;6204015;23;20604;-40
2022/01/25 16:29:16;;;;;;;5.20;3.97;;;;;;;;;;6202149;23;20099;-40
2022/01/25 16:31:43;;;;;;;5.43;4.30;;;;;;;;;;6202404;23;20025;-40
2022/01/25 16:34:08;;;;;;;3.90;3.60;;;;;;;;;;6202607;23;20038;-40
2022/01/25 16:36:34;;;;;;;4.32;3.92;;;;;;;;;;6202210;23;20770;-40
2022/01/25 16:39:00;;;;;;;4.90;4.40;;;;;;;;;;6203429;23;20427;-41
2022/01/25 16:41:26;;;;;;;4.45;4.05;;;;;;;;;;6202218;23;20442;-40
2022/01/25 16:43:51;;;;;;;5.18;4.72;;;;;;;;;;6200540;23;20020;-39
2022/01/25 16:46:17;;;;;;;5.05;4.55;;;;;;;;;;6202837;23;20027;-41
2022/01/25 16:48:43;;;;;;;4.60;4.20;;;;;;;;;;6202611;23;20526;-40
2022/01/25 16:51:08;;;;;;;5.00;4.53;;;;;;;;;;6203388;23;20078;-39